sensor_id;sensor_type;location;lat;lon;timestamp;temperature;humidity
65864;SHT30;52639;51.180;20.460;2023-04-25T00:01:33;10.52;70.67
65864;SHT30;52639;51.180;20.460;2023-04-25T00:05:37;10.52;70.70
65864;SHT30;52639;51.180;20.460;2023-04-25T00:09:42;10.52;70.68
65864;SHT30;52639;51.180;20.460;2023-04-25T00:13:47;10.54;70.60
65864;SHT30;52639;51.180;20.460;2023-04-25T00:17:51;10.54;71.51
65864;SHT30;52639;51.180;20.460;2023-04-25T00:21:57;10.75;71.24
65864;SHT30;52639;51.180;20.460;2023-04-25T00:26:00;10.73;71.80
65864;SHT30;52639;51.180;20.460;2023-04-25T00:30:07;10.85;70.68
65864;SHT30;52639;51.180;20.460;2023-04-25T00:34:10;10.88;71.63
65864;SHT30;52639;51.180;20.460;2023-04-25T00:38:13;10.98;72.25
65864;SHT30;52639;51.180;20.460;2023-04-25T00:42:16;10.91;71.99
65864;SHT30;52639;51.180;20.460;2023-04-25T00:46:21;11.02;73.07
65864;SHT30;52639;51.180;20.460;2023-04-25T00:50:24;10.92;72.48
65864;SHT30;52639;51.180;20.460;2023-04-25T00:54:27;10.96;72.88
65864;SHT30;52639;51.180;20.460;2023-04-25T00:58:32;11.02;73.62
65864;SHT30;52639;51.180;20.460;2023-04-25T01:02:37;11.09;73.07
65864;SHT30;52639;51.180;20.460;2023-04-25T01:06:40;11.13;75.27
65864;SHT30;52639;51.180;20.460;2023-04-25T01:10:45;11.13;74.11
65864;SHT30;52639;51.180;20.460;2023-04-25T01:14:48;11.09;76.31
65864;SHT30;52639;51.180;20.460;2023-04-25T01:18:53;11.03;75.87
65864;SHT30;52639;51.180;20.460;2023-04-25T01:22:58;10.99;74.85
65864;SHT30;52639;51.180;20.460;2023-04-25T01:27:02;10.89;74.79
65864;SHT30;52639;51.180;20.460;2023-04-25T01:31:17;10.88;77.27
65864;SHT30;52639;51.180;20.460;2023-04-25T01:35:21;10.80;75.62
65864;SHT30;52639;51.180;20.460;2023-04-25T01:39:30;10.75;74.81
65864;SHT30;52639;51.180;20.460;2023-04-25T01:43:36;10.69;75.28
65864;SHT30;52639;51.180;20.460;2023-04-25T01:47:42;10.71;75.32
65864;SHT30;52639;51.180;20.460;2023-04-25T01:51:51;10.69;75.20
65864;SHT30;52639;51.180;20.460;2023-04-25T01:56:07;10.65;76.36
65864;SHT30;52639;51.180;20.460;2023-04-25T02:00:12;10.61;79.14
65864;SHT30;52639;51.180;20.460;2023-04-25T02:04:15;10.59;76.65
65864;SHT30;52639;51.180;20.460;2023-04-25T02:08:18;10.58;77.01
65864;SHT30;52639;51.180;20.460;2023-04-25T02:12:23;10.54;77.34
65864;SHT30;52639;51.180;20.460;2023-04-25T02:16:30;10.49;79.58
65864;SHT30;52639;51.180;20.460;2023-04-25T02:20:34;10.45;81.13
65864;SHT30;52639;51.180;20.460;2023-04-25T02:24:38;10.35;78.36
65864;SHT30;52639;51.180;20.460;2023-04-25T02:28:45;10.31;77.77
65864;SHT30;52639;51.180;20.460;2023-04-25T02:32:53;10.27;79.89
65864;SHT30;52639;51.180;20.460;2023-04-25T02:36:58;10.21;79.02
65864;SHT30;52639;51.180;20.460;2023-04-25T02:41:02;10.11;80.69
65864;SHT30;52639;51.180;20.460;2023-04-25T02:45:13;9.95;79.55
65864;SHT30;52639;51.180;20.460;2023-04-25T02:49:32;9.86;80.97
65864;SHT30;52639;51.180;20.460;2023-04-25T02:54:06;9.74;80.77
65864;SHT30;52639;51.180;20.460;2023-04-25T02:58:27;9.71;80.57
65864;SHT30;52639;51.180;20.460;2023-04-25T03:02:52;9.61;81.86
65864;SHT30;52639;51.180;20.460;2023-04-25T03:07:32;9.59;85.12
65864;SHT30;52639;51.180;20.460;2023-04-25T03:11:57;9.51;81.51
65864;SHT30;52639;51.180;20.460;2023-04-25T03:16:13;9.57;80.48
65864;SHT30;52639;51.180;20.460;2023-04-25T03:20:22;9.51;81.41
65864;SHT30;52639;51.180;20.460;2023-04-25T03:24:35;9.60;81.05
65864;SHT30;52639;51.180;20.460;2023-04-25T03:29:16;9.53;79.99
65864;SHT30;52639;51.180;20.460;2023-04-25T03:33:58;9.51;79.66
65864;SHT30;52639;51.180;20.460;2023-04-25T03:39:09;9.51;78.55
65864;SHT30;52639;51.180;20.460;2023-04-25T03:44:17;9.46;81.15
65864;SHT30;52639;51.180;20.460;2023-04-25T03:49:03;9.44;82.35
65864;SHT30;52639;51.180;20.460;2023-04-25T03:53:36;9.39;86.73
65864;SHT30;52639;51.180;20.460;2023-04-25T03:57:45;9.39;82.58
65864;SHT30;52639;51.180;20.460;2023-04-25T04:02:03;9.39;82.32
65864;SHT30;52639;51.180;20.460;2023-04-25T04:06:35;9.39;85.49
65864;SHT30;52639;51.180;20.460;2023-04-25T04:11:03;9.36;87.17
65864;SHT30;52639;51.180;20.460;2023-04-25T04:15:16;9.37;82.99
65864;SHT30;52639;51.180;20.460;2023-04-25T04:19:52;9.42;83.86
65864;SHT30;52639;51.180;20.460;2023-04-25T04:24:01;9.40;85.34
65864;SHT30;52639;51.180;20.460;2023-04-25T04:28:14;9.37;88.33
65864;SHT30;52639;51.180;20.460;2023-04-25T04:32:38;9.29;86.28
65864;SHT30;52639;51.180;20.460;2023-04-25T04:37:02;9.22;85.59
65864;SHT30;52639;51.180;20.460;2023-04-25T04:41:11;9.15;85.93
65864;SHT30;52639;51.180;20.460;2023-04-25T04:45:30;9.16;83.09
65864;SHT30;52639;51.180;20.460;2023-04-25T04:49:40;9.18;84.87
65864;SHT30;52639;51.180;20.460;2023-04-25T04:54:02;9.20;84.30
65864;SHT30;52639;51.180;20.460;2023-04-25T04:58:11;9.22;86.10
65864;SHT30;52639;51.180;20.460;2023-04-25T05:02:24;9.25;87.20
65864;SHT30;52639;51.180;20.460;2023-04-25T05:06:59;9.18;89.13
65864;SHT30;52639;51.180;20.460;2023-04-25T05:11:12;9.09;88.54
65864;SHT30;52639;51.180;20.460;2023-04-25T05:15:35;9.06;89.46
65864;SHT30;52639;51.180;20.460;2023-04-25T05:19:39;9.08;87.73
65864;SHT30;52639;51.180;20.460;2023-04-25T05:23:47;9.05;88.34
65864;SHT30;52639;51.180;20.460;2023-04-25T05:27:54;9.04;88.38
65864;SHT30;52639;51.180;20.460;2023-04-25T05:31:59;9.01;87.60
65864;SHT30;52639;51.180;20.460;2023-04-25T05:36:30;8.85;85.54
65864;SHT30;52639;51.180;20.460;2023-04-25T05:41:01;8.88;86.94
65864;SHT30;52639;51.180;20.460;2023-04-25T05:45:07;8.89;87.91
65864;SHT30;52639;51.180;20.460;2023-04-25T05:49:11;8.82;90.17
65864;SHT30;52639;51.180;20.460;2023-04-25T05:53:19;8.74;88.81
65864;SHT30;52639;51.180;20.460;2023-04-25T05:57:25;8.71;87.19
65864;SHT30;52639;51.180;20.460;2023-04-25T06:01:29;8.71;89.42
65864;SHT30;52639;51.180;20.460;2023-04-25T06:05:32;8.75;89.09
65864;SHT30;52639;51.180;20.460;2023-04-25T06:09:34;8.64;86.92
65864;SHT30;52639;51.180;20.460;2023-04-25T06:13:39;8.57;87.35
65864;SHT30;52639;51.180;20.460;2023-04-25T06:17:42;8.60;89.29
65864;SHT30;52639;51.180;20.460;2023-04-25T06:21:45;8.65;89.51
65864;SHT30;52639;51.180;20.460;2023-04-25T06:25:48;8.81;88.98
65864;SHT30;52639;51.180;20.460;2023-04-25T06:29:52;9.01;86.55
65864;SHT30;52639;51.180;20.460;2023-04-25T06:33:55;8.89;87.36
65864;SHT30;52639;51.180;20.460;2023-04-25T06:37:58;8.98;87.75
65864;SHT30;52639;51.180;20.460;2023-04-25T06:42:01;9.15;84.42
65864;SHT30;52639;51.180;20.460;2023-04-25T06:46:08;9.26;86.16
65864;SHT30;52639;51.180;20.460;2023-04-25T06:50:13;9.26;84.23
65864;SHT30;52639;51.180;20.460;2023-04-25T06:54:16;8.93;86.25
65864;SHT30;52639;51.180;20.460;2023-04-25T06:58:22;9.02;88.44
65864;SHT30;52639;51.180;20.460;2023-04-25T07:02:27;8.99;88.23
65864;SHT30;52639;51.180;20.460;2023-04-25T07:06:30;9.27;86.88
65864;SHT30;52639;51.180;20.460;2023-04-25T07:10:33;9.49;84.75
65864;SHT30;52639;51.180;20.460;2023-04-25T07:14:36;9.47;84.80
65864;SHT30;52639;51.180;20.460;2023-04-25T07:18:41;9.59;84.41
65864;SHT30;52639;51.180;20.460;2023-04-25T07:22:44;9.44;85.14
65864;SHT30;52639;51.180;20.460;2023-04-25T07:26:48;9.54;85.32
65864;SHT30;52639;51.180;20.460;2023-04-25T07:30:51;9.80;84.07
65864;SHT30;52639;51.180;20.460;2023-04-25T07:34:56;9.49;84.19
65864;SHT30;52639;51.180;20.460;2023-04-25T07:38:59;9.20;85.38
65864;SHT30;52639;51.180;20.460;2023-04-25T07:43:03;8.89;85.97
65864;SHT30;52639;51.180;20.460;2023-04-25T07:47:06;8.93;86.09
65864;SHT30;52639;51.180;20.460;2023-04-25T07:51:11;9.39;85.57
65864;SHT30;52639;51.180;20.460;2023-04-25T07:55:13;9.86;84.05
65864;SHT30;52639;51.180;20.460;2023-04-25T07:59:16;10.20;82.34
65864;SHT30;52639;51.180;20.460;2023-04-25T08:03:19;10.08;82.51
65864;SHT30;52639;51.180;20.460;2023-04-25T08:07:24;9.50;83.50
65864;SHT30;52639;51.180;20.460;2023-04-25T08:11:28;9.81;82.63
65864;SHT30;52639;51.180;20.460;2023-04-25T08:15:32;9.93;81.85
65864;SHT30;52639;51.180;20.460;2023-04-25T08:19:35;9.80;81.61
65864;SHT30;52639;51.180;20.460;2023-04-25T08:23:40;9.79;82.20
65864;SHT30;52639;51.180;20.460;2023-04-25T08:27:45;9.81;82.53
65864;SHT30;52639;51.180;20.460;2023-04-25T08:31:47;10.13;81.91
65864;SHT30;52639;51.180;20.460;2023-04-25T08:35:51;10.68;79.66
65864;SHT30;52639;51.180;20.460;2023-04-25T08:39:55;10.96;80.56
65864;SHT30;52639;51.180;20.460;2023-04-25T08:43:59;11.80;77.91
65864;SHT30;52639;51.180;20.460;2023-04-25T08:48:03;12.05;77.70
65864;SHT30;52639;51.180;20.460;2023-04-25T08:52:07;11.57;78.61
65864;SHT30;52639;51.180;20.460;2023-04-25T08:56:16;11.67;78.10
65864;SHT30;52639;51.180;20.460;2023-04-25T09:00:22;11.78;78.14
65864;SHT30;52639;51.180;20.460;2023-04-25T09:04:25;11.42;78.60
65864;SHT30;52639;51.180;20.460;2023-04-25T09:08:28;11.00;79.56
65864;SHT30;52639;51.180;20.460;2023-04-25T09:12:36;10.71;80.06
65864;SHT30;52639;51.180;20.460;2023-04-25T09:16:59;10.65;80.13
65864;SHT30;52639;51.180;20.460;2023-04-25T09:21:06;10.64;79.55
65864;SHT30;52639;51.180;20.460;2023-04-25T09:25:10;10.71;79.22
65864;SHT30;52639;51.180;20.460;2023-04-25T09:29:14;10.95;78.52
65864;SHT30;52639;51.180;20.460;2023-04-25T09:33:18;11.05;78.43
65864;SHT30;52639;51.180;20.460;2023-04-25T09:37:22;11.42;78.25
65864;SHT30;52639;51.180;20.460;2023-04-25T09:41:25;11.32;77.61
65864;SHT30;52639;51.180;20.460;2023-04-25T09:45:31;11.26;77.42
65864;SHT30;52639;51.180;20.460;2023-04-25T09:49:33;11.29;77.95
65864;SHT30;52639;51.180;20.460;2023-04-25T09:53:38;11.22;77.43
65864;SHT30;52639;51.180;20.460;2023-04-25T09:57:41;10.86;78.73
65864;SHT30;52639;51.180;20.460;2023-04-25T10:01:48;10.58;79.18
65864;SHT30;52639;51.180;20.460;2023-04-25T10:05:52;10.14;80.50
65864;SHT30;52639;51.180;20.460;2023-04-25T10:09:59;10.59;79.02
65864;SHT30;52639;51.180;20.460;2023-04-25T10:14:03;10.85;77.87
65864;SHT30;52639;51.180;20.460;2023-04-25T10:18:10;11.20;76.44
65864;SHT30;52639;51.180;20.460;2023-04-25T10:22:17;11.24;76.73
65864;SHT30;52639;51.180;20.460;2023-04-25T10:26:21;11.26;78.02
65864;SHT30;52639;51.180;20.460;2023-04-25T10:30:25;11.70;77.10
65864;SHT30;52639;51.180;20.460;2023-04-25T10:34:40;11.64;76.02
65864;SHT30;52639;51.180;20.460;2023-04-25T10:38:44;12.04;76.04
65864;SHT30;52639;51.180;20.460;2023-04-25T10:42:47;12.14;75.76
65864;SHT30;52639;51.180;20.460;2023-04-25T10:46:51;11.44;77.49
65864;SHT30;52639;51.180;20.460;2023-04-25T10:51:08;10.65;78.66
65864;SHT30;52639;51.180;20.460;2023-04-25T10:55:12;10.05;80.22
65864;SHT30;52639;51.180;20.460;2023-04-25T10:59:16;9.59;81.42
65864;SHT30;52639;51.180;20.460;2023-04-25T11:03:21;9.37;82.26
65864;SHT30;52639;51.180;20.460;2023-04-25T11:07:34;9.64;80.26
65864;SHT30;52639;51.180;20.460;2023-04-25T11:11:40;9.91;80.76
65864;SHT30;52639;51.180;20.460;2023-04-25T11:15:43;10.04;80.39
65864;SHT30;52639;51.180;20.460;2023-04-25T11:19:48;10.30;78.39
65864;SHT30;52639;51.180;20.460;2023-04-25T11:23:56;10.35;77.43
65864;SHT30;52639;51.180;20.460;2023-04-25T11:28:04;10.54;78.52
65864;SHT30;52639;51.180;20.460;2023-04-25T11:32:07;10.59;78.62
65864;SHT30;52639;51.180;20.460;2023-04-25T11:36:12;10.91;77.63
65864;SHT30;52639;51.180;20.460;2023-04-25T11:40:17;11.09;76.78
65864;SHT30;52639;51.180;20.460;2023-04-25T11:44:21;11.29;75.81
65864;SHT30;52639;51.180;20.460;2023-04-25T11:48:24;11.66;75.74
65864;SHT30;52639;51.180;20.460;2023-04-25T11:52:36;11.54;75.05
65864;SHT30;52639;51.180;20.460;2023-04-25T11:56:42;11.33;75.94
65864;SHT30;52639;51.180;20.460;2023-04-25T12:00:46;11.19;76.25
65864;SHT30;52639;51.180;20.460;2023-04-25T12:04:49;10.95;76.53
65864;SHT30;52639;51.180;20.460;2023-04-25T12:09:00;10.86;76.52
65864;SHT30;52639;51.180;20.460;2023-04-25T12:13:19;10.55;76.82
65864;SHT30;52639;51.180;20.460;2023-04-25T12:17:22;10.51;77.22
65864;SHT30;52639;51.180;20.460;2023-04-25T12:21:28;10.37;77.12
65864;SHT30;52639;51.180;20.460;2023-04-25T12:25:35;10.33;77.09
65864;SHT30;52639;51.180;20.460;2023-04-25T12:29:51;10.22;77.03
65864;SHT30;52639;51.180;20.460;2023-04-25T12:33:54;10.08;78.41
65864;SHT30;52639;51.180;20.460;2023-04-25T12:37:57;10.08;78.67
65864;SHT30;52639;51.180;20.460;2023-04-25T12:42:00;10.24;77.92
65864;SHT30;52639;51.180;20.460;2023-04-25T12:46:06;10.52;77.09
65864;SHT30;52639;51.180;20.460;2023-04-25T12:50:09;10.54;76.71
65864;SHT30;52639;51.180;20.460;2023-04-25T12:54:13;10.99;75.81
65864;SHT30;52639;51.180;20.460;2023-04-25T12:58:17;11.24;75.01
65864;SHT30;52639;51.180;20.460;2023-04-25T13:02:22;11.15;75.89
65864;SHT30;52639;51.180;20.460;2023-04-25T13:06:25;10.86;76.56
65864;SHT30;52639;51.180;20.460;2023-04-25T13:10:28;10.66;77.67
65864;SHT30;52639;51.180;20.460;2023-04-25T13:14:32;10.38;78.20
65864;SHT30;52639;51.180;20.460;2023-04-25T13:18:37;10.33;77.90
65864;SHT30;52639;51.180;20.460;2023-04-25T13:22:40;9.95;79.40
65864;SHT30;52639;51.180;20.460;2023-04-25T13:26:43;9.81;78.79
65864;SHT30;52639;51.180;20.460;2023-04-25T13:30:47;9.69;80.08
65864;SHT30;52639;51.180;20.460;2023-04-25T13:34:53;9.90;79.09
65864;SHT30;52639;51.180;20.460;2023-04-25T13:39:01;9.95;80.06
65864;SHT30;52639;51.180;20.460;2023-04-25T13:43:31;9.90;79.50
65864;SHT30;52639;51.180;20.460;2023-04-25T13:48:35;10.03;78.65
65864;SHT30;52639;51.180;20.460;2023-04-25T13:58:27;9.59;79.51
65864;SHT30;52639;51.180;20.460;2023-04-25T14:08:03;9.26;79.75
65864;SHT30;52639;51.180;20.460;2023-04-25T14:12:16;9.04;79.75
65864;SHT30;52639;51.180;20.460;2023-04-25T14:21:33;9.29;80.50
65864;SHT30;52639;51.180;20.460;2023-04-25T14:25:44;9.51;86.65
65864;SHT30;52639;51.180;20.460;2023-04-25T14:30:23;9.57;80.94
65864;SHT30;52639;51.180;20.460;2023-04-25T14:34:41;9.61;79.75
65864;SHT30;52639;51.180;20.460;2023-04-25T14:44:22;9.36;80.54
65864;SHT30;52639;51.180;20.460;2023-04-25T14:48:39;9.35;80.20
65864;SHT30;52639;51.180;20.460;2023-04-25T14:52:58;9.39;79.85
65864;SHT30;52639;51.180;20.460;2023-04-25T14:57:13;9.37;79.84
65864;SHT30;52639;51.180;20.460;2023-04-25T15:01:40;9.35;80.37
65864;SHT30;52639;51.180;20.460;2023-04-25T15:06:15;9.35;80.52
65864;SHT30;52639;51.180;20.460;2023-04-25T15:10:39;9.16;80.33
65864;SHT30;52639;51.180;20.460;2023-04-25T15:15:06;9.18;80.61
65864;SHT30;52639;51.180;20.460;2023-04-25T15:25:11;8.91;79.85
65864;SHT30;52639;51.180;20.460;2023-04-25T15:29:49;8.75;79.94
65864;SHT30;52639;51.180;20.460;2023-04-25T15:34:35;8.69;80.78
65864;SHT30;52639;51.180;20.460;2023-04-25T15:39:12;8.60;80.75
65864;SHT30;52639;51.180;20.460;2023-04-25T15:49:04;8.48;80.50
65864;SHT30;52639;51.180;20.460;2023-04-25T15:53:57;8.45;80.37
65864;SHT30;52639;51.180;20.460;2023-04-25T15:58:05;8.44;80.24
65864;SHT30;52639;51.180;20.460;2023-04-25T16:02:54;8.34;82.05
65864;SHT30;52639;51.180;20.460;2023-04-25T16:17:38;8.23;82.37
65864;SHT30;52639;51.180;20.460;2023-04-25T16:21:58;8.14;81.77
65864;SHT30;52639;51.180;20.460;2023-04-25T16:26:35;8.04;82.11
65864;SHT30;52639;51.180;20.460;2023-04-25T16:51:43;7.72;81.86
65864;SHT30;52639;51.180;20.460;2023-04-25T16:56:51;7.69;82.34
65864;SHT30;52639;51.180;20.460;2023-04-25T17:01:57;7.69;82.10
65864;SHT30;52639;51.180;20.460;2023-04-25T17:12:42;7.61;82.52
65864;SHT30;52639;51.180;20.460;2023-04-25T17:22:41;7.45;82.64
65864;SHT30;52639;51.180;20.460;2023-04-25T17:27:03;7.36;83.89
65864;SHT30;52639;51.180;20.460;2023-04-25T17:46:53;7.15;83.28
65864;SHT30;52639;51.180;20.460;2023-04-25T17:51:07;7.18;82.86
65864;SHT30;52639;51.180;20.460;2023-04-25T17:55:21;7.11;85.04
65864;SHT30;52639;51.180;20.460;2023-04-25T17:59:51;7.08;83.51
65864;SHT30;52639;51.180;20.460;2023-04-25T18:04:04;7.07;82.96
65864;SHT30;52639;51.180;20.460;2023-04-25T18:08:51;7.02;82.46
65864;SHT30;52639;51.180;20.460;2023-04-25T18:13:00;7.07;82.35
65864;SHT30;52639;51.180;20.460;2023-04-25T18:17:08;7.05;82.29
65864;SHT30;52639;51.180;20.460;2023-04-25T18:21:29;7.08;82.18
65864;SHT30;52639;51.180;20.460;2023-04-25T18:25:36;7.02;82.49
65864;SHT30;52639;51.180;20.460;2023-04-25T18:30:24;6.97;82.22
65864;SHT30;52639;51.180;20.460;2023-04-25T18:35:21;6.95;82.25
65864;SHT30;52639;51.180;20.460;2023-04-25T18:45:19;6.94;82.26
65864;SHT30;52639;51.180;20.460;2023-04-25T20:40:57;6.48;83.29
65864;SHT30;52639;51.180;20.460;2023-04-25T20:45:02;6.51;84.06
65864;SHT30;52639;51.180;20.460;2023-04-25T20:49:08;6.56;83.75
65864;SHT30;52639;51.180;20.460;2023-04-25T20:53:53;6.54;83.54
